Terminal Aerodrome Forecast
Issued by NWS

Home | Current Version | Previous Version | Text Only | Print | Product List | Glossary On
Versions: 1 2 3 4 5 6 7 8 9 10 11 12 13 14 15 16 17 18 19 20 21 22 23 24 25
000
FTUS46 KSGX 301700
TAFSAN
TAF
KSAN 301730Z 3018/3124 VRB05KT P6SM SCT014
     FM301900 25008KT P6SM SKC
     FM310200 VRB05KT P6SM FEW015
     FM310400 21006KT P6SM OVC015
     FM311600 17006KT P6SM BKN020
     FM311700 19007KT P6SM SCT021=

USA.gov is the U.S. government's official web portal to all federal, state and local government web resources and services.